sensor_id;sensor_type;location;lat;lon;timestamp;temperature;humidity
66343;DHT22;53144;51.524;5.080;2023-09-30T00:00:56;11.98;98.90
66343;DHT22;53144;51.524;5.080;2023-09-30T00:03:22;11.88;99.21
66343;DHT22;53144;51.524;5.080;2023-09-30T00:05:47;11.84;99.38
66343;DHT22;53144;51.524;5.080;2023-09-30T00:08:13;11.77;99.30
66343;DHT22;53144;51.524;5.080;2023-09-30T00:10:38;11.75;99.33
66343;DHT22;53144;51.524;5.080;2023-09-30T00:13:03;11.81;99.56
66343;DHT22;53144;51.524;5.080;2023-09-30T00:15:32;11.90;99.90
66343;DHT22;53144;51.524;5.080;2023-09-30T00:17:58;11.90;99.62
66343;DHT22;53144;51.524;5.080;2023-09-30T00:20:23;12.01;99.90
66343;DHT22;53144;51.524;5.080;2023-09-30T00:22:48;12.10;99.57
66343;DHT22;53144;51.524;5.080;2023-09-30T00:25:14;12.18;99.37
66343;DHT22;53144;51.524;5.080;2023-09-30T00:27:39;12.10;98.99
66343;DHT22;53144;51.524;5.080;2023-09-30T00:30:05;11.88;99.38
66343;DHT22;53144;51.524;5.080;2023-09-30T00:32:31;11.87;99.74
66343;DHT22;53144;51.524;5.080;2023-09-30T00:34:56;11.95;99.87
66343;DHT22;53144;51.524;5.080;2023-09-30T00:37:22;11.91;99.56
66343;DHT22;53144;51.524;5.080;2023-09-30T00:39:47;12.02;99.46
66343;DHT22;53144;51.524;5.080;2023-09-30T00:42:12;12.04;99.34
66343;DHT22;53144;51.524;5.080;2023-09-30T00:44:38;12.18;99.60
66343;DHT22;53144;51.524;5.080;2023-09-30T00:47:04;12.06;98.95
66343;DHT22;53144;51.524;5.080;2023-09-30T00:49:29;12.05;99.06
66343;DHT22;53144;51.524;5.080;2023-09-30T00:51:55;12.01;99.24
66343;DHT22;53144;51.524;5.080;2023-09-30T00:54:23;11.99;99.45
66343;DHT22;53144;51.524;5.080;2023-09-30T00:56:50;11.87;99.59
66343;DHT22;53144;51.524;5.080;2023-09-30T00:59:18;11.81;99.84
66343;DHT22;53144;51.524;5.080;2023-09-30T01:01:45;11.83;99.79
66343;DHT22;53144;51.524;5.080;2023-09-30T01:04:11;11.75;99.76
66343;DHT22;53144;51.524;5.080;2023-09-30T01:06:37;11.85;99.99
66343;DHT22;53144;51.524;5.080;2023-09-30T01:09:02;11.71;99.56
66343;DHT22;53144;51.524;5.080;2023-09-30T01:11:28;11.71;99.83
66343;DHT22;53144;51.524;5.080;2023-09-30T01:13:53;11.70;99.86
66343;DHT22;53144;51.524;5.080;2023-09-30T01:16:20;11.70;99.90
66343;DHT22;53144;51.524;5.080;2023-09-30T01:18:46;11.67;99.71
66343;DHT22;53144;51.524;5.080;2023-09-30T01:21:11;11.59;99.71
66343;DHT22;53144;51.524;5.080;2023-09-30T01:23:37;11.56;99.93
66343;DHT22;53144;51.524;5.080;2023-09-30T01:26:09;11.59;99.91
66343;DHT22;53144;51.524;5.080;2023-09-30T01:28:35;11.56;99.72
66343;DHT22;53144;51.524;5.080;2023-09-30T01:31:01;11.57;99.87
66343;DHT22;53144;51.524;5.080;2023-09-30T01:33:27;11.56;99.87
66343;DHT22;53144;51.524;5.080;2023-09-30T01:35:53;11.50;99.70
66343;DHT22;53144;51.524;5.080;2023-09-30T01:38:19;11.42;99.90
66343;DHT22;53144;51.524;5.080;2023-09-30T01:40:47;11.40;99.99
66343;DHT22;53144;51.524;5.080;2023-09-30T01:43:13;11.47;99.99
66343;DHT22;53144;51.524;5.080;2023-09-30T01:45:39;11.54;99.99
66343;DHT22;53144;51.524;5.080;2023-09-30T01:48:05;11.56;99.99
66343;DHT22;53144;51.524;5.080;2023-09-30T01:50:30;11.67;99.99
66343;DHT22;53144;51.524;5.080;2023-09-30T01:52:56;11.77;99.99
66343;DHT22;53144;51.524;5.080;2023-09-30T01:55:22;11.98;99.99
66343;DHT22;53144;51.524;5.080;2023-09-30T01:57:48;12.04;99.99
66343;DHT22;53144;51.524;5.080;2023-09-30T02:00:13;12.06;99.78
66343;DHT22;53144;51.524;5.080;2023-09-30T02:02:41;12.08;99.68
66343;DHT22;53144;51.524;5.080;2023-09-30T02:05:07;12.08;99.77
66343;DHT22;53144;51.524;5.080;2023-09-30T02:07:36;12.15;99.60
66343;DHT22;53144;51.524;5.080;2023-09-30T02:10:01;12.14;99.76
66343;DHT22;53144;51.524;5.080;2023-09-30T02:12:27;12.15;99.41
66343;DHT22;53144;51.524;5.080;2023-09-30T02:14:55;12.21;99.46
66343;DHT22;53144;51.524;5.080;2023-09-30T02:17:21;12.21;99.42
66343;DHT22;53144;51.524;5.080;2023-09-30T02:19:47;12.21;99.38
66343;DHT22;53144;51.524;5.080;2023-09-30T02:22:13;12.20;99.21
66343;DHT22;53144;51.524;5.080;2023-09-30T02:24:38;12.20;99.23
66343;DHT22;53144;51.524;5.080;2023-09-30T02:27:05;12.18;99.33
66343;DHT22;53144;51.524;5.080;2023-09-30T02:29:31;12.17;99.31
66343;DHT22;53144;51.524;5.080;2023-09-30T02:31:56;12.14;99.31
66343;DHT22;53144;51.524;5.080;2023-09-30T02:34:21;12.05;99.41
66343;DHT22;53144;51.524;5.080;2023-09-30T02:36:47;12.06;99.51
66343;DHT22;53144;51.524;5.080;2023-09-30T02:39:12;12.10;99.52
66343;DHT22;53144;51.524;5.080;2023-09-30T02:41:41;12.18;99.40
66343;DHT22;53144;51.524;5.080;2023-09-30T02:44:07;12.20;99.10
66343;DHT22;53144;51.524;5.080;2023-09-30T02:46:32;12.20;99.01
66343;DHT22;53144;51.524;5.080;2023-09-30T02:48:57;12.04;99.00
66343;DHT22;53144;51.524;5.080;2023-09-30T02:51:23;12.01;98.89
66343;DHT22;53144;51.524;5.080;2023-09-30T02:53:50;11.93;98.92
66343;DHT22;53144;51.524;5.080;2023-09-30T02:56:15;11.93;99.12
66343;DHT22;53144;51.524;5.080;2023-09-30T02:58:41;11.93;99.35
66343;DHT22;53144;51.524;5.080;2023-09-30T03:01:06;11.91;99.53
66343;DHT22;53144;51.524;5.080;2023-09-30T03:03:32;11.87;99.72
66343;DHT22;53144;51.524;5.080;2023-09-30T03:05:58;11.83;99.53
66343;DHT22;53144;51.524;5.080;2023-09-30T03:08:25;11.85;99.87
66343;DHT22;53144;51.524;5.080;2023-09-30T03:10:51;11.87;99.85
66343;DHT22;53144;51.524;5.080;2023-09-30T03:13:16;11.85;99.92
66343;DHT22;53144;51.524;5.080;2023-09-30T03:15:44;11.88;99.97
66343;DHT22;53144;51.524;5.080;2023-09-30T03:18:09;11.90;99.99
66343;DHT22;53144;51.524;5.080;2023-09-30T03:20:35;11.97;99.91
66343;DHT22;53144;51.524;5.080;2023-09-30T03:23:05;11.93;99.85
66343;DHT22;53144;51.524;5.080;2023-09-30T03:25:30;11.90;99.99
66343;DHT22;53144;51.524;5.080;2023-09-30T03:27:55;11.81;99.80
66343;DHT22;53144;51.524;5.080;2023-09-30T03:30:22;11.74;99.90
66343;DHT22;53144;51.524;5.080;2023-09-30T03:32:48;11.64;99.89
66343;DHT22;53144;51.524;5.080;2023-09-30T03:35:14;11.67;99.99
66343;DHT22;53144;51.524;5.080;2023-09-30T03:37:42;11.70;99.99
66343;DHT22;53144;51.524;5.080;2023-09-30T03:40:07;11.73;99.99
66343;DHT22;53144;51.524;5.080;2023-09-30T03:42:40;11.78;99.99
66343;DHT22;53144;51.524;5.080;2023-09-30T03:45:08;11.77;99.99
66343;DHT22;53144;51.524;5.080;2023-09-30T03:47:34;11.84;99.99
66343;DHT22;53144;51.524;5.080;2023-09-30T03:49:59;11.81;99.99
66343;DHT22;53144;51.524;5.080;2023-09-30T03:52:25;11.77;99.95
66343;DHT22;53144;51.524;5.080;2023-09-30T03:54:51;11.74;99.99
66343;DHT22;53144;51.524;5.080;2023-09-30T03:57:18;11.71;99.99
66343;DHT22;53144;51.524;5.080;2023-09-30T03:59:44;11.71;99.99
66343;DHT22;53144;51.524;5.080;2023-09-30T04:02:12;11.73;99.99
66343;DHT22;53144;51.524;5.080;2023-09-30T04:04:38;11.69;99.99
66343;DHT22;53144;51.524;5.080;2023-09-30T04:07:03;11.71;99.99
66343;DHT22;53144;51.524;5.080;2023-09-30T04:09:31;11.66;99.99
66343;DHT22;53144;51.524;5.080;2023-09-30T04:11:57;11.60;99.99
66343;DHT22;53144;51.524;5.080;2023-09-30T04:14:23;11.69;99.99
66343;DHT22;53144;51.524;5.080;2023-09-30T04:16:48;11.66;99.99
66343;DHT22;53144;51.524;5.080;2023-09-30T04:19:13;11.56;99.99
66343;DHT22;53144;51.524;5.080;2023-09-30T04:21:39;11.54;99.99
66343;DHT22;53144;51.524;5.080;2023-09-30T04:24:04;11.54;99.99
66343;DHT22;53144;51.524;5.080;2023-09-30T04:26:30;11.54;99.99
66343;DHT22;53144;51.524;5.080;2023-09-30T04:28:55;11.56;99.99
66343;DHT22;53144;51.524;5.080;2023-09-30T04:31:22;11.62;99.99
66343;DHT22;53144;51.524;5.080;2023-09-30T04:33:49;11.57;99.99
66343;DHT22;53144;51.524;5.080;2023-09-30T04:36:16;11.60;99.99
66343;DHT22;53144;51.524;5.080;2023-09-30T04:38:42;11.56;99.99
66343;DHT22;53144;51.524;5.080;2023-09-30T04:41:08;11.52;99.99
66343;DHT22;53144;51.524;5.080;2023-09-30T04:43:34;11.54;99.99
66343;DHT22;53144;51.524;5.080;2023-09-30T04:46:00;11.54;99.99
66343;DHT22;53144;51.524;5.080;2023-09-30T04:48:26;11.60;99.99
66343;DHT22;53144;51.524;5.080;2023-09-30T04:50:51;11.62;99.99
66343;DHT22;53144;51.524;5.080;2023-09-30T04:53:17;11.62;99.99
66343;DHT22;53144;51.524;5.080;2023-09-30T04:55:44;11.64;99.99
66343;DHT22;53144;51.524;5.080;2023-09-30T04:58:09;11.52;99.99
66343;DHT22;53144;51.524;5.080;2023-09-30T05:00:35;11.42;99.99
66343;DHT22;53144;51.524;5.080;2023-09-30T05:03:00;11.44;99.99
66343;DHT22;53144;51.524;5.080;2023-09-30T05:05:26;11.50;99.99
66343;DHT22;53144;51.524;5.080;2023-09-30T05:07:51;11.60;99.99
66343;DHT22;53144;51.524;5.080;2023-09-30T05:10:17;11.57;99.99
66343;DHT22;53144;51.524;5.080;2023-09-30T05:12:43;11.57;99.99
66343;DHT22;53144;51.524;5.080;2023-09-30T05:15:11;11.37;99.99
66343;DHT22;53144;51.524;5.080;2023-09-30T05:17:36;11.29;99.99
66343;DHT22;53144;51.524;5.080;2023-09-30T05:20:02;11.22;99.99
66343;DHT22;53144;51.524;5.080;2023-09-30T05:22:31;11.20;99.99
66343;DHT22;53144;51.524;5.080;2023-09-30T05:24:56;11.27;99.99
66343;DHT22;53144;51.524;5.080;2023-09-30T05:27:21;11.35;99.99
66343;DHT22;53144;51.524;5.080;2023-09-30T05:29:46;11.39;99.99
66343;DHT22;53144;51.524;5.080;2023-09-30T05:32:12;11.39;99.99
66343;DHT22;53144;51.524;5.080;2023-09-30T05:34:38;11.30;99.99
66343;DHT22;53144;51.524;5.080;2023-09-30T05:37:04;11.25;99.99
66343;DHT22;53144;51.524;5.080;2023-09-30T05:39:29;11.32;99.99
66343;DHT22;53144;51.524;5.080;2023-09-30T05:41:57;11.37;99.99
66343;DHT22;53144;51.524;5.080;2023-09-30T05:44:22;11.30;99.99
66343;DHT22;53144;51.524;5.080;2023-09-30T05:46:47;11.23;99.99
66343;DHT22;53144;51.524;5.080;2023-09-30T05:49:13;11.18;99.99
66343;DHT22;53144;51.524;5.080;2023-09-30T05:51:42;11.06;99.99
66343;DHT22;53144;51.524;5.080;2023-09-30T05:54:08;11.08;99.99
66343;DHT22;53144;51.524;5.080;2023-09-30T05:56:37;11.11;99.99
66343;DHT22;53144;51.524;5.080;2023-09-30T05:59:03;11.15;99.99
66343;DHT22;53144;51.524;5.080;2023-09-30T06:01:30;11.18;99.99
66343;DHT22;53144;51.524;5.080;2023-09-30T06:03:56;11.16;99.99
66343;DHT22;53144;51.524;5.080;2023-09-30T06:06:21;11.20;99.99
66343;DHT22;53144;51.524;5.080;2023-09-30T06:08:47;11.23;99.99
66343;DHT22;53144;51.524;5.080;2023-09-30T06:11:16;11.29;99.99
66343;DHT22;53144;51.524;5.080;2023-09-30T06:13:41;11.29;99.99
66343;DHT22;53144;51.524;5.080;2023-09-30T06:16:07;11.32;99.99
66343;DHT22;53144;51.524;5.080;2023-09-30T06:18:32;11.27;99.99
66343;DHT22;53144;51.524;5.080;2023-09-30T06:20:57;11.27;99.99
66343;DHT22;53144;51.524;5.080;2023-09-30T06:23:23;11.14;99.99
66343;DHT22;53144;51.524;5.080;2023-09-30T06:25:48;11.12;99.99
66343;DHT22;53144;51.524;5.080;2023-09-30T06:28:13;11.14;99.99
66343;DHT22;53144;51.524;5.080;2023-09-30T06:30:39;11.15;99.99
66343;DHT22;53144;51.524;5.080;2023-09-30T06:33:07;11.12;99.99
66343;DHT22;53144;51.524;5.080;2023-09-30T06:35:34;11.23;99.99
66343;DHT22;53144;51.524;5.080;2023-09-30T06:38:03;11.32;99.99
66343;DHT22;53144;51.524;5.080;2023-09-30T06:40:28;11.39;99.99
66343;DHT22;53144;51.524;5.080;2023-09-30T06:42:53;11.47;99.99
66343;DHT22;53144;51.524;5.080;2023-09-30T06:45:19;11.56;99.99
66343;DHT22;53144;51.524;5.080;2023-09-30T06:47:44;11.64;99.99
66343;DHT22;53144;51.524;5.080;2023-09-30T06:50:12;11.59;99.99
66343;DHT22;53144;51.524;5.080;2023-09-30T06:52:42;11.63;99.99
66343;DHT22;53144;51.524;5.080;2023-09-30T06:55:08;11.74;99.99
66343;DHT22;53144;51.524;5.080;2023-09-30T06:57:34;11.84;99.99
66343;DHT22;53144;51.524;5.080;2023-09-30T06:59:59;11.90;99.99
66343;DHT22;53144;51.524;5.080;2023-09-30T07:02:24;11.90;99.99
66343;DHT22;53144;51.524;5.080;2023-09-30T07:04:51;11.95;99.99
66343;DHT22;53144;51.524;5.080;2023-09-30T07:07:16;11.99;99.99
66343;DHT22;53144;51.524;5.080;2023-09-30T07:09:43;12.12;99.99
66343;DHT22;53144;51.524;5.080;2023-09-30T07:12:08;12.17;99.99
66343;DHT22;53144;51.524;5.080;2023-09-30T07:14:34;12.12;99.99
66343;DHT22;53144;51.524;5.080;2023-09-30T07:16:59;12.21;99.99
66343;DHT22;53144;51.524;5.080;2023-09-30T07:19:24;12.24;99.99
66343;DHT22;53144;51.524;5.080;2023-09-30T07:21:50;12.33;99.99
66343;DHT22;53144;51.524;5.080;2023-09-30T07:24:15;12.42;99.99
66343;DHT22;53144;51.524;5.080;2023-09-30T07:26:40;12.53;99.99
66343;DHT22;53144;51.524;5.080;2023-09-30T07:29:06;12.57;99.99
66343;DHT22;53144;51.524;5.080;2023-09-30T07:31:37;12.66;99.99
66343;DHT22;53144;51.524;5.080;2023-09-30T07:34:03;12.67;99.99
66343;DHT22;53144;51.524;5.080;2023-09-30T07:36:28;12.64;99.99
66343;DHT22;53144;51.524;5.080;2023-09-30T07:38:53;12.79;99.99
66343;DHT22;53144;51.524;5.080;2023-09-30T07:41:19;12.79;99.99
66343;DHT22;53144;51.524;5.080;2023-09-30T07:43:45;12.86;99.99
66343;DHT22;53144;51.524;5.080;2023-09-30T07:46:10;12.80;99.99
66343;DHT22;53144;51.524;5.080;2023-09-30T07:48:36;12.93;99.99
66343;DHT22;53144;51.524;5.080;2023-09-30T07:51:01;13.00;99.99
66343;DHT22;53144;51.524;5.080;2023-09-30T07:53:27;13.00;99.99
66343;DHT22;53144;51.524;5.080;2023-09-30T07:55:53;13.03;99.99
66343;DHT22;53144;51.524;5.080;2023-09-30T07:58:19;12.93;99.99
66343;DHT22;53144;51.524;5.080;2023-09-30T08:00:45;12.99;99.99
66343;DHT22;53144;51.524;5.080;2023-09-30T08:03:11;13.06;99.99
66343;DHT22;53144;51.524;5.080;2023-09-30T08:05:37;13.04;99.99
66343;DHT22;53144;51.524;5.080;2023-09-30T08:08:03;13.11;99.99
66343;DHT22;53144;51.524;5.080;2023-09-30T08:10:29;13.17;99.99
66343;DHT22;53144;51.524;5.080;2023-09-30T08:12:57;13.24;99.99
66343;DHT22;53144;51.524;5.080;2023-09-30T08:15:24;13.30;99.99
66343;DHT22;53144;51.524;5.080;2023-09-30T08:17:50;13.35;99.99
66343;DHT22;53144;51.524;5.080;2023-09-30T08:20:16;13.37;99.95
66343;DHT22;53144;51.524;5.080;2023-09-30T08:22:41;13.45;99.99
66343;DHT22;53144;51.524;5.080;2023-09-30T08:25:07;13.51;99.85
66343;DHT22;53144;51.524;5.080;2023-09-30T08:27:33;13.57;99.73
66343;DHT22;53144;51.524;5.080;2023-09-30T08:29:58;13.63;99.80
66343;DHT22;53144;51.524;5.080;2023-09-30T08:32:24;13.76;99.83
66343;DHT22;53144;51.524;5.080;2023-09-30T08:34:50;13.86;99.75
66343;DHT22;53144;51.524;5.080;2023-09-30T08:37:16;13.86;99.50
66343;DHT22;53144;51.524;5.080;2023-09-30T08:39:42;14.00;99.77
66343;DHT22;53144;51.524;5.080;2023-09-30T08:42:09;14.06;99.27
66343;DHT22;53144;51.524;5.080;2023-09-30T08:44:38;14.06;99.10
66343;DHT22;53144;51.524;5.080;2023-09-30T08:47:05;14.12;98.75
66343;DHT22;53144;51.524;5.080;2023-09-30T08:49:34;14.21;98.68
66343;DHT22;53144;51.524;5.080;2023-09-30T08:52:02;14.41;98.95
66343;DHT22;53144;51.524;5.080;2023-09-30T08:54:27;14.54;98.83
66343;DHT22;53144;51.524;5.080;2023-09-30T08:56:53;14.52;97.16
66343;DHT22;53144;51.524;5.080;2023-09-30T08:59:19;14.44;97.45
66343;DHT22;53144;51.524;5.080;2023-09-30T09:01:45;14.54;97.83
66343;DHT22;53144;51.524;5.080;2023-09-30T09:04:10;14.67;97.66
66343;DHT22;53144;51.524;5.080;2023-09-30T09:06:36;14.79;97.58
66343;DHT22;53144;51.524;5.080;2023-09-30T09:09:18;15.00;97.31
66343;DHT22;53144;51.524;5.080;2023-09-30T09:11:45;15.03;96.09
66343;DHT22;53144;51.524;5.080;2023-09-30T09:14:12;15.15;95.92
66343;DHT22;53144;51.524;5.080;2023-09-30T09:16:50;15.13;96.62
66343;DHT22;53144;51.524;5.080;2023-09-30T09:19:16;15.23;96.41
66343;DHT22;53144;51.524;5.080;2023-09-30T09:21:55;15.32;95.84
66343;DHT22;53144;51.524;5.080;2023-09-30T09:24:35;15.39;95.34
66343;DHT22;53144;51.524;5.080;2023-09-30T09:27:08;15.37;95.48
66343;DHT22;53144;51.524;5.080;2023-09-30T09:29:35;15.26;95.09
66343;DHT22;53144;51.524;5.080;2023-09-30T09:32:17;15.42;94.73
66343;DHT22;53144;51.524;5.080;2023-09-30T09:34:44;15.36;94.77
66343;DHT22;53144;51.524;5.080;2023-09-30T09:37:17;15.44;94.57
66343;DHT22;53144;51.524;5.080;2023-09-30T09:39:53;15.60;93.39
66343;DHT22;53144;51.524;5.080;2023-09-30T09:42:31;15.71;93.28
66343;DHT22;53144;51.524;5.080;2023-09-30T09:45:02;15.83;93.05
66343;DHT22;53144;51.524;5.080;2023-09-30T09:47:29;15.81;92.44
66343;DHT22;53144;51.524;5.080;2023-09-30T09:49:57;15.91;92.48
66343;DHT22;53144;51.524;5.080;2023-09-30T09:52:23;15.98;91.49
66343;DHT22;53144;51.524;5.080;2023-09-30T09:54:50;16.24;92.32
66343;DHT22;53144;51.524;5.080;2023-09-30T09:57:17;16.39;91.12
66343;DHT22;53144;51.524;5.080;2023-09-30T10:00:03;16.53;91.04
66343;DHT22;53144;51.524;5.080;2023-09-30T10:02:32;16.59;89.79
66343;DHT22;53144;51.524;5.080;2023-09-30T10:04:57;16.73;90.86
66343;DHT22;53144;51.524;5.080;2023-09-30T10:07:30;16.90;90.61
66343;DHT22;53144;51.524;5.080;2023-09-30T10:10:00;17.01;90.35
66343;DHT22;53144;51.524;5.080;2023-09-30T10:12:27;17.17;89.79
66343;DHT22;53144;51.524;5.080;2023-09-30T10:14:53;17.30;89.06
66343;DHT22;53144;51.524;5.080;2023-09-30T10:17:18;17.62;87.99
66343;DHT22;53144;51.524;5.080;2023-09-30T10:20:10;17.78;87.82
66343;DHT22;53144;51.524;5.080;2023-09-30T10:22:35;18.73;85.58
66343;DHT22;53144;51.524;5.080;2023-09-30T10:25:01;19.31;83.73
66343;DHT22;53144;51.524;5.080;2023-09-30T10:27:50;19.47;83.32
66343;DHT22;53144;51.524;5.080;2023-09-30T10:30:15;20.08;78.91
66343;DHT22;53144;51.524;5.080;2023-09-30T10:35:42;21.41;75.76
66343;DHT22;53144;51.524;5.080;2023-09-30T10:40:49;21.51;74.63
66343;DHT22;53144;51.524;5.080;2023-09-30T10:45:59;21.55;72.45
66343;DHT22;53144;51.524;5.080;2023-09-30T10:50:55;22.27;70.88
66343;DHT22;53144;51.524;5.080;2023-09-30T10:53:22;22.06;71.59
66343;DHT22;53144;51.524;5.080;2023-09-30T10:55:58;22.11;69.78
66343;DHT22;53144;51.524;5.080;2023-09-30T10:58:46;22.33;70.37
66343;DHT22;53144;51.524;5.080;2023-09-30T11:01:13;22.10;68.72
66343;DHT22;53144;51.524;5.080;2023-09-30T11:03:42;22.33;69.21
66343;DHT22;53144;51.524;5.080;2023-09-30T11:06:11;22.43;68.52
66343;DHT22;53144;51.524;5.080;2023-09-30T11:08:41;22.30;67.45
66343;DHT22;53144;51.524;5.080;2023-09-30T11:11:09;22.31;69.65
66343;DHT22;53144;51.524;5.080;2023-09-30T11:13:36;22.33;67.21
66343;DHT22;53144;51.524;5.080;2023-09-30T11:16:05;22.57;68.07
66343;DHT22;53144;51.524;5.080;2023-09-30T11:18:30;22.57;66.31
66343;DHT22;53144;51.524;5.080;2023-09-30T11:21:10;22.37;67.75
66343;DHT22;53144;51.524;5.080;2023-09-30T11:23:37;21.96;70.21
66343;DHT22;53144;51.524;5.080;2023-09-30T11:26:03;21.45;71.84
66343;DHT22;53144;51.524;5.080;2023-09-30T11:29:03;20.91;72.48
66343;DHT22;53144;51.524;5.080;2023-09-30T11:31:29;20.43;74.16
66343;DHT22;53144;51.524;5.080;2023-09-30T11:33:59;19.70;74.85
66343;DHT22;53144;51.524;5.080;2023-09-30T11:36:29;20.15;72.54
66343;DHT22;53144;51.524;5.080;2023-09-30T11:39:00;20.69;72.26
66343;DHT22;53144;51.524;5.080;2023-09-30T11:41:33;21.10;68.69
66343;DHT22;53144;51.524;5.080;2023-09-30T11:44:04;21.34;70.77
66343;DHT22;53144;51.524;5.080;2023-09-30T11:46:31;21.52;70.10
66343;DHT22;53144;51.524;5.080;2023-09-30T11:49:02;21.31;69.65
66343;DHT22;53144;51.524;5.080;2023-09-30T11:51:34;22.07;69.24
66343;DHT22;53144;51.524;5.080;2023-09-30T11:54:08;22.06;68.89
66343;DHT22;53144;51.524;5.080;2023-09-30T11:56:34;21.58;69.72
66343;DHT22;53144;51.524;5.080;2023-09-30T11:58:59;21.85;69.56
66343;DHT22;53144;51.524;5.080;2023-09-30T12:01:24;21.93;67.70
66343;DHT22;53144;51.524;5.080;2023-09-30T12:03:51;21.92;68.93
66343;DHT22;53144;51.524;5.080;2023-09-30T12:06:17;22.13;67.86
66343;DHT22;53144;51.524;5.080;2023-09-30T12:08:43;22.54;65.24
66343;DHT22;53144;51.524;5.080;2023-09-30T12:11:08;22.21;65.01
66343;DHT22;53144;51.524;5.080;2023-09-30T12:13:38;21.48;69.25
66343;DHT22;53144;51.524;5.080;2023-09-30T12:16:03;20.77;69.87
66343;DHT22;53144;51.524;5.080;2023-09-30T12:18:29;20.59;69.84
66343;DHT22;53144;51.524;5.080;2023-09-30T12:20:54;20.24;71.12
66343;DHT22;53144;51.524;5.080;2023-09-30T12:23:20;20.32;73.29
66343;DHT22;53144;51.524;5.080;2023-09-30T12:25:46;20.24;72.04
66343;DHT22;53144;51.524;5.080;2023-09-30T12:28:12;20.62;69.18
66343;DHT22;53144;51.524;5.080;2023-09-30T12:30:39;20.72;67.83
66343;DHT22;53144;51.524;5.080;2023-09-30T12:33:06;21.10;68.13
66343;DHT22;53144;51.524;5.080;2023-09-30T12:35:32;21.56;64.95
66343;DHT22;53144;51.524;5.080;2023-09-30T12:37:58;21.56;64.27
66343;DHT22;53144;51.524;5.080;2023-09-30T12:40:23;21.45;66.00
66343;DHT22;53144;51.524;5.080;2023-09-30T12:42:49;21.23;65.64
66343;DHT22;53144;51.524;5.080;2023-09-30T12:45:15;21.44;64.19
66343;DHT22;53144;51.524;5.080;2023-09-30T12:47:42;21.32;64.16
66343;DHT22;53144;51.524;5.080;2023-09-30T12:50:08;21.24;65.51
66343;DHT22;53144;51.524;5.080;2023-09-30T12:52:36;20.28;68.81
66343;DHT22;53144;51.524;5.080;2023-09-30T12:55:04;20.32;71.35
66343;DHT22;53144;51.524;5.080;2023-09-30T12:57:30;20.12;71.50
66343;DHT22;53144;51.524;5.080;2023-09-30T12:59:56;20.45;67.21
66343;DHT22;53144;51.524;5.080;2023-09-30T13:02:22;20.36;66.74
66343;DHT22;53144;51.524;5.080;2023-09-30T13:04:47;20.16;66.90
66343;DHT22;53144;51.524;5.080;2023-09-30T13:07:14;20.19;68.98
66343;DHT22;53144;51.524;5.080;2023-09-30T13:09:39;20.09;69.32
66343;DHT22;53144;51.524;5.080;2023-09-30T13:12:06;19.98;68.08
66343;DHT22;53144;51.524;5.080;2023-09-30T13:14:32;19.97;68.79
66343;DHT22;53144;51.524;5.080;2023-09-30T13:16:58;19.79;69.11
66343;DHT22;53144;51.524;5.080;2023-09-30T13:19:23;19.87;66.77
66343;DHT22;53144;51.524;5.080;2023-09-30T13:21:49;19.92;67.64
66343;DHT22;53144;51.524;5.080;2023-09-30T13:24:24;19.92;67.14
66343;DHT22;53144;51.524;5.080;2023-09-30T13:26:49;19.89;67.58
66343;DHT22;53144;51.524;5.080;2023-09-30T13:29:18;19.74;67.92
66343;DHT22;53144;51.524;5.080;2023-09-30T13:31:44;19.64;69.64
66343;DHT22;53144;51.524;5.080;2023-09-30T13:34:10;19.70;69.21
66343;DHT22;53144;51.524;5.080;2023-09-30T13:36:37;19.71;67.95
66343;DHT22;53144;51.524;5.080;2023-09-30T13:39:03;19.81;68.80
66343;DHT22;53144;51.524;5.080;2023-09-30T13:41:34;19.78;70.16
66343;DHT22;53144;51.524;5.080;2023-09-30T13:43:59;19.87;67.46
66343;DHT22;53144;51.524;5.080;2023-09-30T13:46:25;19.97;67.56
66343;DHT22;53144;51.524;5.080;2023-09-30T13:48:53;19.95;69.67
66343;DHT22;53144;51.524;5.080;2023-09-30T13:51:18;20.07;70.01
66343;DHT22;53144;51.524;5.080;2023-09-30T13:53:44;20.01;67.81
66343;DHT22;53144;51.524;5.080;2023-09-30T13:56:09;19.85;68.33
66343;DHT22;53144;51.524;5.080;2023-09-30T13:58:36;19.85;69.11
66343;DHT22;53144;51.524;5.080;2023-09-30T14:01:01;19.91;68.68
66343;DHT22;53144;51.524;5.080;2023-09-30T14:03:27;19.87;67.11
66343;DHT22;53144;51.524;5.080;2023-09-30T14:05:54;19.64;68.04
66343;DHT22;53144;51.524;5.080;2023-09-30T14:08:19;19.71;67.03
66343;DHT22;53144;51.524;5.080;2023-09-30T14:10:45;19.68;68.43
66343;DHT22;53144;51.524;5.080;2023-09-30T14:13:10;19.63;68.73
66343;DHT22;53144;51.524;5.080;2023-09-30T14:15:36;19.53;67.83
66343;DHT22;53144;51.524;5.080;2023-09-30T14:18:03;19.56;68.53
66343;DHT22;53144;51.524;5.080;2023-09-30T14:20:28;19.50;68.91
66343;DHT22;53144;51.524;5.080;2023-09-30T14:22:54;19.46;69.22
66343;DHT22;53144;51.524;5.080;2023-09-30T14:25:22;19.49;69.13
66343;DHT22;53144;51.524;5.080;2023-09-30T14:27:48;19.50;70.08
66343;DHT22;53144;51.524;5.080;2023-09-30T14:30:15;19.57;68.53
66343;DHT22;53144;51.524;5.080;2023-09-30T14:32:40;19.49;68.91
66343;DHT22;53144;51.524;5.080;2023-09-30T14:35:07;19.20;71.58
66343;DHT22;53144;51.524;5.080;2023-09-30T14:37:34;19.19;71.44
66343;DHT22;53144;51.524;5.080;2023-09-30T14:40:00;19.10;70.43
66343;DHT22;53144;51.524;5.080;2023-09-30T14:42:25;19.00;71.40
66343;DHT22;53144;51.524;5.080;2023-09-30T14:44:50;19.02;72.96
66343;DHT22;53144;51.524;5.080;2023-09-30T14:47:16;19.06;72.93
66343;DHT22;53144;51.524;5.080;2023-09-30T14:49:42;19.12;73.41
66343;DHT22;53144;51.524;5.080;2023-09-30T14:52:07;19.19;72.33
66343;DHT22;53144;51.524;5.080;2023-09-30T14:54:34;19.13;71.31
66343;DHT22;53144;51.524;5.080;2023-09-30T14:57:00;19.19;72.16
66343;DHT22;53144;51.524;5.080;2023-09-30T14:59:26;19.18;71.71
66343;DHT22;53144;51.524;5.080;2023-09-30T15:01:52;19.18;71.66
66343;DHT22;53144;51.524;5.080;2023-09-30T15:04:18;19.05;71.97
66343;DHT22;53144;51.524;5.080;2023-09-30T15:06:44;19.00;72.04
66343;DHT22;53144;51.524;5.080;2023-09-30T15:09:11;18.91;72.81
66343;DHT22;53144;51.524;5.080;2023-09-30T15:11:37;18.85;72.62
66343;DHT22;53144;51.524;5.080;2023-09-30T15:14:03;18.82;73.10
66343;DHT22;53144;51.524;5.080;2023-09-30T15:16:30;18.82;74.81
66343;DHT22;53144;51.524;5.080;2023-09-30T15:18:56;18.65;77.73
66343;DHT22;53144;51.524;5.080;2023-09-30T15:21:22;18.51;78.14
66343;DHT22;53144;51.524;5.080;2023-09-30T15:23:47;18.57;75.59
66343;DHT22;53144;51.524;5.080;2023-09-30T15:26:13;18.44;76.86
66343;DHT22;53144;51.524;5.080;2023-09-30T15:28:40;18.55;73.15
66343;DHT22;53144;51.524;5.080;2023-09-30T15:31:06;18.62;74.56
66343;DHT22;53144;51.524;5.080;2023-09-30T15:33:32;18.67;73.11
66343;DHT22;53144;51.524;5.080;2023-09-30T15:36:10;18.62;72.32
66343;DHT22;53144;51.524;5.080;2023-09-30T15:38:36;18.58;73.20